Time;durP1;ratioP1;P1;durP2;ratioP2;P2;SDS_P1;SDS_P2;PMS_P1;PMS_P2;Temp;Humidity;BMP_temperature;BMP_pressure;BME280_temperature;BME280_humidity;BME280_pressure;Samples;Min_cycle;Max_cycle;Signal;HPM_P1;HPM_P2
2022/01/24 00:01:18;;;;;;;47.57;27.93;;;7.30;93.30;;;;;;5074798;28;20112;-79
2022/01/24 00:03:43;;;;;;;50.20;29.57;;;7.30;93.20;;;;;;5073059;28;20031;-79
2022/01/24 00:06:13;;;;;;;56.27;31.27;;;7.30;93.00;;;;;;5071402;28;20103;-79
2022/01/24 00:08:39;;;;;;;52.03;29.67;;;7.30;92.90;;;;;;5070885;28;20041;-78
2022/01/24 00:11:12;;;;;;;50.07;28.67;;;7.20;92.80;;;;;;5074164;28;20541;-79
2022/01/24 00:17:30;;;;;;;49.15;27.75;;;7.20;92.50;;;;;;5036275;28;20057;-79
2022/01/24 00:27:16;;;;;;;44.72;25.20;;;7.20;92.40;;;;;;5074041;28;20389;-79
2022/01/24 00:29:41;;;;;;;43.33;24.50;;;7.20;92.20;;;;;;5071968;28;20024;-79
2022/01/24 00:32:07;;;;;;;34.83;21.50;;;7.20;92.10;;;;;;5056233;28;20032;-79
2022/01/24 00:34:33;;;;;;;36.60;20.80;;;7.20;92.10;;;;;;5072337;28;20098;-79
2022/01/24 00:37:00;;;;;;;36.23;20.70;;;7.10;91.80;;;;;;5072411;28;20472;-79
2022/01/24 00:39:26;;;;;;;31.27;17.33;;;7.00;91.70;;;;;;5072564;28;20027;-79
2022/01/24 00:45:01;;;;;;;31.10;18.13;;;7.10;91.00;;;;;;5035788;28;20573;-80
2022/01/24 00:47:40;;;;;;;29.00;17.53;;;7.10;91.10;;;;;;5057571;28;20035;-79
2022/01/24 00:55:20;;;;;;;29.27;17.40;;;7.10;90.90;;;;;;5073080;28;20047;-80
2022/01/24 00:57:46;;;;;;;29.03;16.77;;;7.10;90.70;;;;;;5072263;28;20025;-78
2022/01/24 01:00:12;;;;;;;26.77;15.80;;;7.10;90.60;;;;;;5053205;28;20024;-79
2022/01/24 01:02:38;;;;;;;32.10;18.90;;;7.10;90.60;;;;;;5072009;28;20070;-78
2022/01/24 01:05:17;;;;;;;30.63;18.13;;;7.00;90.60;;;;;;5070747;28;20033;-79
2022/01/24 01:08:02;;;;;;;32.00;19.53;;;7.10;90.60;;;;;;5072216;28;20066;-79
2022/01/24 01:18:42;;;;;;;27.83;17.50;;;7.00;90.40;;;;;;5061048;28;20397;-78
2022/01/24 01:21:10;;;;;;;31.87;19.33;;;7.00;90.40;;;;;;5067743;28;20457;-78
2022/01/24 01:23:45;;;;;;;31.07;19.97;;;7.00;90.30;;;;;;5072087;28;20461;-79
2022/01/24 01:26:20;;;;;;;31.33;19.03;;;7.00;90.40;;;;;;5072896;28;20110;-79
2022/01/24 01:28:49;;;;;;;32.03;19.67;;;7.00;90.30;;;;;;5072410;28;20029;-79
2022/01/24 01:31:26;;;;;;;33.93;18.90;;;7.00;90.30;;;;;;5069630;28;20127;-79
2022/01/24 01:37:24;;;;;;;30.43;19.40;;;7.10;90.10;;;;;;5069733;28;20040;-79
2022/01/24 01:53:05;;;;;;;26.87;16.93;;;6.90;90.10;;;;;;5072995;28;20113;-80
2022/01/24 01:57:56;;;;;;;23.50;14.73;;;6.90;90.20;;;;;;5071805;28;20508;-80
2022/01/24 02:00:22;;;;;;;25.17;15.23;;;6.90;90.20;;;;;;5071357;28;20162;-79
2022/01/24 02:02:47;;;;;;;27.90;17.00;;;7.00;90.30;;;;;;5070768;28;20052;-79
2022/01/24 02:05:13;;;;;;;23.87;14.47;;;7.00;90.30;;;;;;5071344;28;20033;-79
2022/01/24 02:07:47;;;;;;;23.47;14.87;;;6.90;90.20;;;;;;5071813;28;20036;-79
2022/01/24 02:10:13;;;;;;;25.27;14.88;;;6.90;90.20;;;;;;5071548;28;20024;-80
2022/01/24 02:12:39;;;;;;;26.23;15.13;;;6.90;90.10;;;;;;5074377;28;20431;-80
2022/01/24 02:15:05;;;;;;;25.83;14.63;;;6.90;90.00;;;;;;5057726;28;20086;-79
2022/01/24 02:17:55;;;;;;;24.37;13.87;;;6.90;90.10;;;;;;5057937;28;20115;-79
2022/01/24 02:23:13;;;;;;;26.00;15.63;;;6.90;90.00;;;;;;5075186;28;20067;-79
2022/01/24 02:25:34;;;;;;;25.53;15.03;;;6.90;89.80;;;;;;5075472;28;20508;-79
2022/01/24 02:28:03;;;;;;;27.47;15.17;;;7.00;90.00;;;;;;5076014;28;20064;-79
2022/01/24 02:30:51;;;;;;;29.57;16.03;;;6.90;90.00;;;;;;5076010;28;20032;-79
2022/01/24 02:33:17;;;;;;;27.70;16.13;;;7.00;90.00;;;;;;5074901;28;20129;-79
2022/01/24 02:35:44;;;;;;;27.03;16.67;;;6.90;90.10;;;;;;5074648;28;20048;-79
2022/01/24 02:38:21;;;;;;;26.20;15.53;;;6.90;90.10;;;;;;5074484;28;20029;-79
2022/01/24 02:46:04;;;;;;;24.57;14.70;;;6.90;90.20;;;;;;5074942;28;20025;-79
2022/01/24 02:49:12;;;;;;;27.27;15.63;;;6.90;90.20;;;;;;5055867;28;20044;-79
2022/01/24 02:54:05;;;;;;;28.70;15.80;;;7.00;90.20;;;;;;5070794;28;20107;-80
2022/01/24 02:56:31;;;;;;;31.30;17.37;;;6.90;90.30;;;;;;5059956;28;20028;-80
2022/01/24 02:58:56;;;;;;;24.90;15.70;;;6.90;90.30;;;;;;5057523;28;20027;-80
2022/01/24 03:01:22;;;;;;;29.50;17.00;;;6.90;90.40;;;;;;5075827;28;20459;-80
2022/01/24 03:03:48;;;;;;;27.97;16.53;;;6.80;90.30;;;;;;5073773;28;20032;-81
2022/01/24 03:06:13;;;;;;;28.00;16.37;;;6.90;90.40;;;;;;5074201;28;20032;-80
2022/01/24 03:08:41;;;;;;;27.73;16.57;;;6.80;90.30;;;;;;5075136;28;20036;-80
2022/01/24 03:11:07;;;;;;;29.60;17.00;;;6.90;90.30;;;;;;5075311;28;20112;-79
2022/01/24 03:13:33;;;;;;;26.77;15.90;;;6.90;90.30;;;;;;5073979;28;20044;-80
2022/01/24 03:16:02;;;;;;;26.87;16.10;;;6.90;90.30;;;;;;5073155;28;20027;-79
2022/01/24 03:18:28;;;;;;;24.60;15.40;;;6.80;90.20;;;;;;5075250;28;20025;-80
2022/01/24 03:20:54;;;;;;;27.33;16.83;;;6.80;90.20;;;;;;5075198;28;20031;-80
2022/01/24 03:23:22;;;;;;;29.17;16.43;;;6.80;90.30;;;;;;5075253;28;20043;-80
2022/01/24 03:25:48;;;;;;;25.93;16.13;;;6.80;90.30;;;;;;5074227;28;20119;-81
2022/01/24 03:28:14;;;;;;;28.07;15.67;;;6.70;90.20;;;;;;5073648;28;20025;-79
2022/01/24 03:30:40;;;;;;;26.93;14.63;;;6.80;90.20;;;;;;5073700;28;20132;-79
2022/01/24 03:33:07;;;;;;;25.67;15.63;;;6.80;90.20;;;;;;5073730;28;20032;-81
2022/01/24 03:35:33;;;;;;;26.57;16.33;;;6.80;90.30;;;;;;5073783;28;20016;-80
2022/01/24 03:38:00;;;;;;;25.13;15.37;;;6.80;90.30;;;;;;5073338;28;20032;-80
2022/01/24 03:40:26;;;;;;;25.37;13.97;;;6.80;90.40;;;;;;5073849;28;20024;-79
2022/01/24 03:42:51;;;;;;;24.23;14.20;;;6.80;90.30;;;;;;5074583;28;20020;-78
2022/01/24 03:45:24;;;;;;;22.73;13.27;;;6.80;90.30;;;;;;5073108;28;20550;-79
2022/01/24 03:48:06;;;;;;;25.00;14.63;;;6.70;90.30;;;;;;5073226;28;20388;-79
2022/01/24 03:50:32;;;;;;;26.23;14.37;;;6.70;90.20;;;;;;5074851;28;20024;-79
2022/01/24 03:52:57;;;;;;;26.27;14.63;;;6.70;90.20;;;;;;5073018;28;20027;-79
2022/01/24 03:55:23;;;;;;;26.57;14.60;;;6.70;90.20;;;;;;5073927;28;20020;-80
2022/01/24 03:57:49;;;;;;;25.27;14.93;;;6.70;90.30;;;;;;5074462;28;20126;-80
2022/01/24 04:00:14;;;;;;;26.17;15.40;;;6.70;90.30;;;;;;5073466;28;20074;-78
2022/01/24 04:02:41;;;;;;;26.20;14.80;;;6.70;90.40;;;;;;5073415;28;20035;-79
2022/01/24 04:05:07;;;;;;;28.57;16.70;;;6.70;90.50;;;;;;5073046;28;20025;-79
2022/01/24 04:07:33;;;;;;;24.03;15.03;;;6.60;90.50;;;;;;5072609;28;20039;-79
2022/01/24 04:10:05;;;;;;;26.17;15.10;;;6.60;90.60;;;;;;5056200;28;20028;-80
2022/01/24 04:12:31;;;;;;;25.87;15.53;;;6.60;90.70;;;;;;5072976;28;20029;-80
2022/01/24 04:15:10;;;;;;;25.57;15.17;;;6.60;90.80;;;;;;5072536;28;20048;-79
2022/01/24 04:17:45;;;;;;;25.90;15.07;;;6.50;90.80;;;;;;5073106;28;20052;-79
2022/01/24 04:22:59;;;;;;;24.70;15.30;;;6.60;90.80;;;;;;5074204;28;20036;-80
2022/01/24 04:25:25;;;;;;;24.60;14.90;;;6.50;90.80;;;;;;5073967;28;20028;-80
2022/01/24 04:27:53;;;;;;;25.77;15.53;;;6.50;90.90;;;;;;5072591;28;20027;-80
2022/01/24 04:30:20;;;;;;;26.70;15.47;;;6.50;90.90;;;;;;5073805;28;20032;-79
2022/01/24 04:32:46;;;;;;;27.97;16.87;;;6.60;90.90;;;;;;5073614;28;20026;-79
2022/01/24 04:35:11;;;;;;;28.27;16.10;;;6.60;90.90;;;;;;5071851;28;20474;-78
2022/01/24 04:37:37;;;;;;;22.03;13.60;;;6.50;90.90;;;;;;5072523;28;20119;-79
2022/01/24 04:40:04;;;;;;;25.97;15.53;;;6.60;91.20;;;;;;5072132;28;20390;-79
2022/01/24 04:42:41;;;;;;;27.07;15.33;;;6.60;90.90;;;;;;5073335;28;20060;-79
2022/01/24 04:56:13;;;;;;;24.83;15.47;;;6.60;90.90;;;;;;5049894;28;20032;-78
2022/01/24 04:58:39;;;;;;;25.63;14.23;;;6.70;90.90;;;;;;5071648;28;20093;-80
2022/01/24 05:01:05;;;;;;;24.87;14.10;;;6.70;90.90;;;;;;5073334;28;20052;-80
2022/01/24 05:03:30;;;;;;;27.27;15.30;;;6.70;91.00;;;;;;5073033;28;20465;-80
2022/01/24 05:05:56;;;;;;;26.87;15.20;;;6.70;90.90;;;;;;5055760;28;20071;-79
2022/01/24 05:08:21;;;;;;;25.93;14.33;;;6.70;90.90;;;;;;5072418;28;20444;-79
2022/01/24 05:11:04;;;;;;;25.23;15.00;;;6.70;90.90;;;;;;5072891;28;20484;-79
2022/01/24 05:24:07;;;;;;;25.67;14.63;;;6.70;90.70;;;;;;5071018;28;20068;-80
2022/01/24 05:26:33;;;;;;;28.10;15.53;;;6.70;90.60;;;;;;5073154;28;20021;-80
2022/01/24 05:28:58;;;;;;;26.30;15.27;;;6.60;90.50;;;;;;5072124;28;20024;-81
2022/01/24 05:31:24;;;;;;;26.80;14.80;;;6.60;90.50;;;;;;5072282;28;20029;-80
2022/01/24 05:33:50;;;;;;;24.53;14.57;;;6.70;90.60;;;;;;5072772;28;20496;-79
2022/01/24 05:36:15;;;;;;;24.77;14.17;;;6.60;90.50;;;;;;5072913;28;20380;-80
2022/01/24 05:38:41;;;;;;;25.83;14.57;;;6.60;90.50;;;;;;5073194;28;20392;-80
2022/01/24 05:41:07;;;;;;;23.87;13.90;;;6.60;90.50;;;;;;5051556;28;20055;-80
2022/01/24 05:43:35;;;;;;;25.20;15.30;;;6.60;90.50;;;;;;5052654;28;20108;-79
2022/01/24 05:46:01;;;;;;;24.97;14.27;;;6.60;90.50;;;;;;5069788;28;20405;-79
2022/01/24 05:48:26;;;;;;;22.90;13.97;;;6.60;90.60;;;;;;5072240;28;20029;-79
2022/01/24 05:50:52;;;;;;;22.47;13.07;;;6.50;90.60;;;;;;5072144;28;20036;-80
2022/01/24 05:53:18;;;;;;;26.73;14.57;;;6.50;90.60;;;;;;5055312;28;20080;-79
2022/01/24 05:55:43;;;;;;;24.03;14.27;;;6.50;90.60;;;;;;5084549;28;20112;-80
2022/01/24 05:58:09;;;;;;;24.00;13.83;;;6.50;90.60;;;;;;5076905;28;20078;-80
2022/01/24 06:00:35;;;;;;;22.87;14.17;;;6.50;90.60;;;;;;5075260;28;20094;-80
2022/01/24 06:03:00;;;;;;;22.17;13.77;;;6.50;90.60;;;;;;5075474;28;20024;-80
2022/01/24 06:05:27;;;;;;;26.33;14.93;;;6.40;90.60;;;;;;5076643;28;20112;-80
2022/01/24 06:07:54;;;;;;;25.10;14.30;;;6.40;90.60;;;;;;5075077;28;20032;-80
2022/01/24 06:10:20;;;;;;;22.40;13.47;;;6.40;90.60;;;;;;5075253;28;20400;-80
2022/01/24 06:12:45;;;;;;;30.03;16.07;;;6.40;90.70;;;;;;5055174;28;20085;-80
2022/01/24 06:15:12;;;;;;;23.77;14.13;;;6.40;90.70;;;;;;5071495;28;20412;-80
2022/01/24 06:17:38;;;;;;;22.57;13.83;;;6.40;90.70;;;;;;5072285;28;20052;-80
2022/01/24 06:20:05;;;;;;;24.33;15.00;;;6.40;90.70;;;;;;5055971;28;20474;-80
2022/01/24 06:22:30;;;;;;;25.00;14.10;;;6.40;90.70;;;;;;5090865;28;20028;-79
2022/01/24 06:24:56;;;;;;;24.67;13.83;;;6.40;90.70;;;;;;5074911;28;20024;-80
2022/01/24 06:27:22;;;;;;;26.50;14.50;;;6.40;90.70;;;;;;5072754;28;20028;-79
2022/01/24 06:29:47;;;;;;;24.30;14.30;;;6.40;90.70;;;;;;5054003;28;20045;-80
2022/01/24 06:32:13;;;;;;;22.37;12.97;;;6.40;90.70;;;;;;5057868;28;20112;-79
2022/01/24 06:34:41;;;;;;;25.07;14.27;;;6.30;90.70;;;;;;5073584;28;20094;-79
2022/01/24 06:37:07;;;;;;;23.17;13.37;;;6.30;90.70;;;;;;5076908;28;20494;-79
2022/01/24 06:39:33;;;;;;;22.50;13.70;;;6.30;90.80;;;;;;5076958;28;20564;-79
2022/01/24 06:42:09;;;;;;;25.87;14.23;;;6.30;90.80;;;;;;5075711;28;20068;-80
2022/01/24 06:44:35;;;;;;;24.53;14.20;;;6.30;90.90;;;;;;5077495;28;20025;-79
2022/01/24 06:47:00;;;;;;;22.23;13.70;;;6.30;90.80;;;;;;5075600;28;20106;-79
2022/01/24 06:49:26;;;;;;;21.90;13.57;;;6.40;90.90;;;;;;5076112;28;20044;-80
2022/01/24 06:51:52;;;;;;;23.97;13.53;;;6.30;91.00;;;;;;5075632;28;20405;-79
2022/01/24 06:54:17;;;;;;;24.40;13.93;;;6.20;91.00;;;;;;5057628;28;20036;-79
2022/01/24 06:56:43;;;;;;;22.73;13.43;;;6.20;91.10;;;;;;5073642;28;20036;-80
2022/01/24 06:59:09;;;;;;;22.40;13.07;;;6.30;91.20;;;;;;5074291;28;20149;-80
2022/01/24 07:01:34;;;;;;;23.60;13.90;;;6.20;91.20;;;;;;5074376;28;20438;-80
2022/01/24 07:04:00;;;;;;;23.53;14.30;;;6.20;91.20;;;;;;5074468;28;20377;-79
2022/01/24 07:06:26;;;;;;;24.03;14.17;;;6.30;91.30;;;;;;5057500;28;20044;-79
2022/01/24 07:08:51;;;;;;;23.50;15.23;;;6.30;91.30;;;;;;5074937;28;20404;-79
2022/01/24 07:11:17;;;;;;;21.13;13.03;;;6.20;91.30;;;;;;5074155;28;20024;-79
2022/01/24 07:13:42;;;;;;;21.50;13.60;;;6.30;91.30;;;;;;5074847;28;20040;-80
2022/01/24 07:16:08;;;;;;;23.33;13.73;;;6.20;91.30;;;;;;5074782;28;20035;-80
2022/01/24 07:21:04;;;;;;;22.07;13.20;;;6.30;91.40;;;;;;5074947;28;20031;-79
2022/01/24 07:23:30;;;;;;;20.87;12.33;;;6.30;91.30;;;;;;5072588;28;20082;-80
2022/01/24 07:25:56;;;;;;;23.13;13.23;;;6.30;91.30;;;;;;5073048;28;20024;-82
2022/01/24 07:28:22;;;;;;;22.67;13.40;;;6.30;91.20;;;;;;5074592;28;20484;-79
2022/01/24 07:30:48;;;;;;;22.47;12.80;;;6.30;91.20;;;;;;5057075;28;20033;-80
2022/01/24 07:33:14;;;;;;;21.53;13.77;;;6.30;91.20;;;;;;5073698;28;20029;-80
2022/01/24 07:35:41;;;;;;;20.37;13.00;;;6.30;91.20;;;;;;5073417;28;20066;-78
2022/01/24 07:38:07;;;;;;;23.20;13.23;;;6.30;91.20;;;;;;5074988;28;20365;-79
2022/01/24 07:40:42;;;;;;;21.37;13.10;;;6.30;91.20;;;;;;5074432;28;20081;-80
2022/01/24 07:43:12;;;;;;;21.50;13.23;;;6.40;91.20;;;;;;5075403;28;20040;-79
2022/01/24 07:45:40;;;;;;;24.37;13.73;;;6.30;91.20;;;;;;5074752;28;20040;-79
2022/01/24 07:48:07;;;;;;;20.03;11.80;;;6.30;91.10;;;;;;5072907;28;20016;-80
2022/01/24 07:50:36;;;;;;;19.70;12.53;;;6.30;91.10;;;;;;5072820;28;20025;-80
2022/01/24 07:53:03;;;;;;;19.73;12.30;;;6.40;91.30;;;;;;5072584;28;20025;-80
2022/01/24 07:55:30;;;;;;;19.20;12.03;;;6.40;91.00;;;;;;5075771;28;20040;-80
2022/01/24 07:57:56;;;;;;;21.50;12.90;;;6.30;91.00;;;;;;5078185;28;20020;-80
2022/01/24 08:00:22;;;;;;;21.43;13.33;;;6.40;91.00;;;;;;5072557;28;20040;-79
2022/01/24 08:02:47;;;;;;;20.23;12.23;;;6.40;90.90;;;;;;5071532;28;20028;-80
2022/01/24 08:05:14;;;;;;;19.80;12.20;;;6.40;90.90;;;;;;5072379;28;20036;-79
2022/01/24 08:07:40;;;;;;;19.27;12.10;;;6.40;90.90;;;;;;5071875;28;20029;-80
2022/01/24 08:10:08;;;;;;;19.53;12.30;;;6.40;90.80;;;;;;5072454;28;20025;-79
2022/01/24 08:12:34;;;;;;;19.77;11.73;;;6.40;90.80;;;;;;5073549;28;20020;-80
2022/01/24 08:15:02;;;;;;;19.57;12.03;;;6.40;90.70;;;;;;5072893;28;20071;-79
2022/01/24 08:17:29;;;;;;;19.17;12.20;;;6.40;90.60;;;;;;5072136;28;20453;-80
2022/01/24 08:19:55;;;;;;;19.63;12.20;;;6.40;90.60;;;;;;5072966;28;20025;-80
2022/01/24 08:22:21;;;;;;;20.23;12.40;;;6.40;90.60;;;;;;5072241;28;20024;-80
2022/01/24 08:24:46;;;;;;;21.67;12.53;;;6.40;90.60;;;;;;5055488;28;20495;-80
2022/01/24 08:27:15;;;;;;;19.03;12.17;;;6.40;90.60;;;;;;5054705;28;20033;-80
2022/01/24 08:29:51;;;;;;;20.47;12.10;;;6.40;90.70;;;;;;5090827;27;20399;-78
2022/01/24 08:32:18;;;;;;;18.30;11.70;;;6.40;90.70;;;;;;5089590;28;20020;-77
2022/01/24 08:34:45;;;;;;;22.30;11.73;;;6.40;90.70;;;;;;5089594;28;20066;-78
2022/01/24 08:37:11;;;;;;;18.73;11.33;;;6.40;91.00;;;;;;5089901;28;20059;-77
2022/01/24 08:39:38;;;;;;;20.70;12.73;;;6.40;90.70;;;;;;5072609;28;20025;-77
2022/01/24 08:42:33;;;;;;;20.67;11.90;;;6.50;90.60;;;;;;5090805;28;20435;-79
2022/01/24 08:47:30;;;;;;;17.20;11.17;;;6.50;90.50;;;;;;5059320;28;20155;-79
2022/01/24 08:49:58;;;;;;;20.17;10.70;;;6.40;90.50;;;;;;5069216;28;20021;-78
2022/01/24 08:52:25;;;;;;;21.90;11.83;;;6.50;90.50;;;;;;5070280;28;20021;-78
2022/01/24 08:54:50;;;;;;;16.20;10.07;;;6.50;90.40;;;;;;5068943;28;20025;-78
2022/01/24 08:57:21;;;;;;;17.33;11.80;;;6.50;90.40;;;;;;5052928;28;20074;-78
2022/01/24 08:59:46;;;;;;;18.67;11.50;;;6.50;90.30;;;;;;5069281;28;20052;-78
2022/01/24 09:02:12;;;;;;;17.43;10.97;;;6.50;90.30;;;;;;5068626;28;20492;-78
2022/01/24 09:04:38;;;;;;;22.00;12.30;;;6.50;90.30;;;;;;5068741;28;20021;-78
2022/01/24 09:07:05;;;;;;;18.03;11.17;;;6.50;90.30;;;;;;5085821;28;20146;-78
2022/01/24 09:09:34;;;;;;;18.03;11.63;;;6.50;90.20;;;;;;5102118;28;20025;-81
2022/01/24 09:12:04;;;;;;;17.27;10.80;;;6.60;90.20;;;;;;5068766;28;20052;-82
2022/01/24 09:14:29;;;;;;;18.40;10.73;;;6.50;90.20;;;;;;5084986;28;20072;-82
2022/01/24 09:16:55;;;;;;;18.17;10.93;;;6.50;90.20;;;;;;5068490;28;20081;-83
2022/01/24 09:19:21;;;;;;;16.67;10.47;;;6.60;90.30;;;;;;5085268;28;20024;-83
2022/01/24 09:21:47;;;;;;;18.97;11.53;;;6.50;90.30;;;;;;5070056;28;20028;-83
2022/01/24 09:24:12;;;;;;;16.23;9.93;;;6.60;90.30;;;;;;5068723;28;20040;-82
2022/01/24 09:26:38;;;;;;;16.53;10.40;;;6.60;90.30;;;;;;5051926;28;20036;-82
2022/01/24 09:29:04;;;;;;;17.17;10.43;;;6.60;90.30;;;;;;5085040;28;20049;-83
2022/01/24 09:31:30;;;;;;;18.20;10.63;;;6.60;90.30;;;;;;5069591;28;20024;-82
2022/01/24 09:33:56;;;;;;;17.37;10.47;;;6.60;90.40;;;;;;5085035;28;20024;-82
2022/01/24 09:36:23;;;;;;;15.73;10.77;;;6.70;90.30;;;;;;5069427;28;20070;-83
2022/01/24 09:38:49;;;;;;;15.20;9.27;;;6.60;90.20;;;;;;5051345;28;20033;-81
2022/01/24 09:41:15;;;;;;;18.20;11.93;;;6.80;90.10;;;;;;5055467;28;20447;-82
2022/01/24 09:43:43;;;;;;;16.87;10.43;;;6.70;90.10;;;;;;5054787;28;20583;-82
2022/01/24 09:46:09;;;;;;;16.93;10.60;;;6.70;90.10;;;;;;5054805;28;20469;-82
2022/01/24 09:48:40;;;;;;;16.70;11.00;;;6.70;90.20;;;;;;5038076;28;20081;-82
2022/01/24 09:51:06;;;;;;;16.20;10.60;;;6.70;90.20;;;;;;5054699;28;20017;-82
2022/01/24 09:53:33;;;;;;;17.97;11.30;;;6.70;90.20;;;;;;5038192;28;20032;-82
2022/01/24 09:56:03;;;;;;;18.97;11.90;;;6.70;90.10;;;;;;5054472;28;20025;-82
2022/01/24 09:58:29;;;;;;;18.03;10.97;;;6.70;89.70;;;;;;5054592;28;20025;-82
2022/01/24 10:00:55;;;;;;;19.10;11.63;;;6.70;89.40;;;;;;5037959;28;20506;-80
2022/01/24 10:03:24;;;;;;;16.97;11.43;;;6.70;89.20;;;;;;5054475;28;20116;-81
2022/01/24 10:05:55;;;;;;;14.90;10.83;;;6.70;89.90;;;;;;5053881;28;20021;-80
2022/01/24 10:08:24;;;;;;;16.07;11.33;;;6.70;89.10;;;;;;5051582;28;20025;-81
2022/01/24 10:10:52;;;;;;;18.57;12.20;;;6.70;89.10;;;;;;5070979;28;20025;-81
2022/01/24 10:16:26;;;;;;;18.20;11.90;;;6.70;88.80;;;;;;5055730;28;20029;-80
2022/01/24 10:19:13;;;;;;;17.63;13.13;;;6.70;88.90;;;;;;5054201;28;20067;-80
2022/01/24 10:22:00;;;;;;;17.90;12.10;;;6.70;88.70;;;;;;5054042;28;20029;-81
2022/01/24 10:24:32;;;;;;;12.67;8.70;;;6.70;88.60;;;;;;5054034;28;20048;-79
2022/01/24 10:27:18;;;;;;;13.83;9.90;;;6.80;88.50;;;;;;5055234;28;20091;-80
2022/01/24 10:29:55;;;;;;;16.63;10.80;;;6.70;88.70;;;;;;5053798;28;20048;-82
2022/01/24 10:32:34;;;;;;;15.77;10.37;;;6.70;88.30;;;;;;5054021;28;20489;-81
2022/01/24 10:35:23;;;;;;;13.97;10.53;;;6.70;88.60;;;;;;5053989;28;20139;-82
2022/01/24 10:37:53;;;;;;;18.07;12.80;;;6.70;88.70;;;;;;5053825;28;20029;-82
2022/01/24 10:40:52;;;;;;;17.57;11.53;;;6.80;88.70;;;;;;5037450;28;20040;-82
2022/01/24 10:43:27;;;;;;;17.80;12.20;;;6.70;88.90;;;;;;5053664;28;20021;-81
2022/01/24 10:45:55;;;;;;;17.83;11.43;;;6.70;88.70;;;;;;5053614;28;20025;-82
2022/01/24 10:48:24;;;;;;;17.07;11.67;;;6.80;88.50;;;;;;5053428;28;20021;-81
2022/01/24 10:51:07;;;;;;;17.27;12.10;;;6.80;88.60;;;;;;5036814;28;20025;-81
2022/01/24 10:53:52;;;;;;;18.65;13.13;;;6.70;88.50;;;;;;5053134;28;20025;-81
2022/01/24 10:56:33;;;;;;;20.37;14.50;;;6.80;88.50;;;;;;5054997;28;20025;-81
2022/01/24 10:59:11;;;;;;;18.27;13.97;;;6.70;88.40;;;;;;5053265;28;20032;-80
2022/01/24 11:01:37;;;;;;;18.90;13.20;;;6.70;88.60;;;;;;5053483;28;20128;-79
2022/01/24 11:04:06;;;;;;;18.30;13.80;;;6.70;88.50;;;;;;5053314;28;20540;-79
2022/01/24 11:06:40;;;;;;;17.60;12.50;;;6.70;88.50;;;;;;5053332;28;20029;-79
2022/01/24 11:09:30;;;;;;;15.77;11.97;;;6.70;88.60;;;;;;5053068;28;20021;-78
2022/01/24 11:11:57;;;;;;;18.70;12.17;;;6.80;88.70;;;;;;5053091;28;20039;-78
2022/01/24 11:14:25;;;;;;;16.20;11.60;;;6.80;88.50;;;;;;5053084;28;20051;-78
2022/01/24 11:16:52;;;;;;;16.00;11.27;;;6.80;88.50;;;;;;5052916;28;20072;-78
2022/01/24 11:19:41;;;;;;;14.40;10.80;;;6.80;88.10;;;;;;5052833;28;20480;-77
2022/01/24 11:22:19;;;;;;;16.67;11.50;;;6.80;88.30;;;;;;5052359;28;20032;-78
2022/01/24 11:24:55;;;;;;;20.43;12.70;;;6.80;88.10;;;;;;5051087;28;20492;-78
2022/01/24 11:27:21;;;;;;;15.97;11.33;;;6.80;88.10;;;;;;5052640;28;20106;-78
2022/01/24 11:29:50;;;;;;;15.10;10.70;;;6.70;88.20;;;;;;5052498;28;20091;-79
2022/01/24 11:32:25;;;;;;;16.07;10.97;;;6.90;88.20;;;;;;5052397;28;20384;-79
2022/01/24 11:34:54;;;;;;;15.17;10.47;;;6.80;88.40;;;;;;5052798;28;20024;-78
2022/01/24 11:37:48;;;;;;;16.53;10.90;;;6.80;88.30;;;;;;5052962;28;20024;-78
2022/01/24 11:40:19;;;;;;;15.63;10.97;;;6.90;88.40;;;;;;5052506;28;20372;-79
2022/01/24 11:42:47;;;;;;;14.70;10.33;;;6.90;88.10;;;;;;5052438;28;20028;-82
2022/01/24 11:45:17;;;;;;;15.60;9.93;;;6.80;87.90;;;;;;5036289;28;20071;-82
2022/01/24 11:47:45;;;;;;;15.37;9.23;;;6.90;88.00;;;;;;5053621;28;20025;-82
2022/01/24 11:50:38;;;;;;;15.33;10.30;;;6.90;87.90;;;;;;5053852;28;20017;-82
2022/01/24 11:53:28;;;;;;;17.23;10.83;;;6.90;87.70;;;;;;5049370;28;20396;-82
2022/01/24 11:55:55;;;;;;;12.73;9.10;;;6.80;87.60;;;;;;5053958;28;20021;-82
2022/01/24 11:58:28;;;;;;;12.73;9.50;;;6.90;88.10;;;;;;5053646;28;20056;-80
2022/01/24 12:00:57;;;;;;;11.50;8.73;;;6.90;87.80;;;;;;5047559;28;20126;-83
2022/01/24 12:03:27;;;;;;;12.67;9.00;;;6.90;87.70;;;;;;5084121;28;20116;-81
2022/01/24 12:05:58;;;;;;;12.37;9.43;;;6.90;87.70;;;;;;5032502;28;20029;-82
2022/01/24 12:08:35;;;;;;;16.27;9.30;;;6.90;87.50;;;;;;5033472;28;20029;-83
2022/01/24 12:11:18;;;;;;;15.87;10.77;;;6.90;87.80;;;;;;5032212;28;20021;-82
2022/01/24 12:13:47;;;;;;;15.85;10.95;;;6.90;87.60;;;;;;5032549;28;20424;-81
2022/01/24 12:16:15;;;;;;;15.40;11.43;;;7.00;87.80;;;;;;5032104;28;20014;-81
2022/01/24 12:18:40;;;;;;;18.10;12.87;;;7.00;87.90;;;;;;5035501;28;20033;-81
2022/01/24 12:21:13;;;;;;;15.20;11.83;;;7.00;87.90;;;;;;5052210;28;20083;-80
2022/01/24 12:23:52;;;;;;;16.87;13.17;;;7.00;87.70;;;;;;5053554;28;20049;-79
2022/01/24 12:26:18;;;;;;;17.00;12.00;;;7.00;87.70;;;;;;5051976;28;20095;-80
2022/01/24 12:28:46;;;;;;;17.97;13.00;;;7.00;87.50;;;;;;5051447;28;20041;-80
2022/01/24 12:31:20;;;;;;;17.33;13.07;;;7.00;87.30;;;;;;5051956;28;20025;-79
2022/01/24 12:34:00;;;;;;;18.88;12.73;;;7.00;87.30;;;;;;5052567;28;20032;-80
2022/01/24 12:37:23;;;;;;;17.57;11.90;;;7.00;87.30;;;;;;5051728;28;20432;-80
2022/01/24 12:39:32;;;;;;;16.10;10.87;;;7.00;87.50;;;;;;5048981;28;20102;-81
2022/01/24 12:42:07;;;;;;;16.88;10.85;;;7.00;87.60;;;;;;5050653;28;20031;-81
2022/01/24 12:47:19;;;;;;;14.33;11.37;;;7.00;87.60;;;;;;5053224;28;20036;-81
2022/01/24 12:49:47;;;;;;;14.73;9.87;;;7.10;87.80;;;;;;5051733;28;20021;-81
2022/01/24 12:52:16;;;;;;;13.53;10.97;;;7.10;87.70;;;;;;5051577;28;20519;-80
2022/01/24 12:54:57;;;;;;;15.13;10.70;;;7.10;87.70;;;;;;5048779;28;20021;-81
2022/01/24 12:57:29;;;;;;;16.10;11.03;;;7.10;87.70;;;;;;5044683;28;20422;-81
2022/01/24 12:59:58;;;;;;;15.80;11.37;;;7.20;87.70;;;;;;5048700;28;20071;-81
2022/01/24 13:02:29;;;;;;;18.23;12.00;;;7.20;87.70;;;;;;5033312;28;20043;-81
2022/01/24 13:05:02;;;;;;;14.53;11.37;;;7.20;87.90;;;;;;5049591;28;20075;-81
2022/01/24 13:07:30;;;;;;;15.15;10.82;;;7.20;88.00;;;;;;5032553;28;20029;-81
2022/01/24 13:10:09;;;;;;;14.70;10.40;;;7.20;88.10;;;;;;5016442;28;20048;-80
2022/01/24 13:12:36;;;;;;;15.37;11.43;;;7.20;88.20;;;;;;5048802;28;20025;-81
2022/01/24 13:15:06;;;;;;;16.33;11.20;;;7.30;88.30;;;;;;5035784;28;20018;-80
2022/01/24 13:21:07;;;;;;;17.03;12.93;;;7.30;88.20;;;;;;5034791;28;20516;-81
2022/01/24 13:23:34;;;;;;;16.00;12.33;;;7.30;87.90;;;;;;5030007;28;20096;-81
2022/01/24 13:25:59;;;;;;;17.27;13.03;;;7.30;88.50;;;;;;5057707;28;20021;-80
2022/01/24 13:28:25;;;;;;;16.97;13.57;;;7.30;87.70;;;;;;5059549;28;20093;-80
2022/01/24 13:31:00;;;;;;;18.17;13.67;;;7.30;87.80;;;;;;5061041;28;20017;-79
2022/01/24 13:33:27;;;;;;;21.07;14.60;;;7.40;87.70;;;;;;5054700;28;20540;-81
2022/01/24 13:36:04;;;;;;;16.73;13.97;;;7.40;87.20;;;;;;5054690;28;20029;-79
2022/01/24 13:38:33;;;;;;;21.00;15.70;;;7.40;87.20;;;;;;5055112;28;20052;-78
2022/01/24 13:41:09;;;;;;;18.33;15.40;;;7.40;86.80;;;;;;5054779;28;20128;-79
2022/01/24 13:43:40;;;;;;;18.20;14.40;;;7.40;87.00;;;;;;5054481;28;20021;-79
2022/01/24 13:46:20;;;;;;;18.20;13.60;;;7.30;87.10;;;;;;5054783;28;20025;-79
2022/01/24 13:48:59;;;;;;;16.93;14.40;;;7.40;87.40;;;;;;5054722;28;20029;-78
2022/01/24 13:51:32;;;;;;;17.00;13.50;;;7.30;87.50;;;;;;5054260;28;20110;-79
2022/01/24 13:53:59;;;;;;;17.60;14.20;;;7.30;87.50;;;;;;5054650;28;20017;-79
2022/01/24 13:56:35;;;;;;;18.60;15.00;;;7.40;87.60;;;;;;5055911;28;20017;-78
2022/01/24 13:59:12;;;;;;;20.03;16.03;;;7.30;87.80;;;;;;5054419;28;20056;-77
2022/01/24 14:01:55;;;;;;;17.70;14.93;;;7.30;87.00;;;;;;5054185;28;20025;-79
2022/01/24 14:04:38;;;;;;;22.07;16.97;;;7.30;87.20;;;;;;5054181;28;20056;-79
2022/01/24 14:07:30;;;;;;;16.35;13.90;;;7.30;87.20;;;;;;5054351;28;20032;-78
2022/01/24 14:09:57;;;;;;;19.33;15.57;;;7.30;87.30;;;;;;5054384;28;20025;-79
2022/01/24 14:12:40;;;;;;;18.77;15.07;;;7.30;87.00;;;;;;5054343;28;20123;-80
2022/01/24 14:15:20;;;;;;;20.87;16.13;;;7.30;86.80;;;;;;5055657;28;20013;-78
2022/01/24 14:20:40;;;;;;;22.55;18.05;;;7.30;86.60;;;;;;5080679;28;20043;-79
2022/01/24 14:23:28;;;;;;;20.83;16.83;;;7.30;86.60;;;;;;5070751;28;20033;-78
2022/01/24 14:25:54;;;;;;;24.20;19.23;;;7.20;86.60;;;;;;5054028;28;20362;-79
2022/01/24 14:28:23;;;;;;;23.17;17.70;;;7.30;86.40;;;;;;5055475;28;20512;-79
2022/01/24 14:30:50;;;;;;;22.00;17.20;;;7.20;86.70;;;;;;5052273;28;20053;-78